createdAt,value
2019-03-27T00:00:45.635Z,11.95
2019-03-27T00:03:14.998Z,9.53
2019-03-27T00:05:44.535Z,15.80
2019-03-27T00:08:13.437Z,12.10
2019-03-27T00:10:42.324Z,12.37
2019-03-27T00:13:11.247Z,13.90
2019-03-27T00:15:40.144Z,18.13
2019-03-27T00:18:09.031Z,18.60
2019-03-27T00:20:37.943Z,13.47
2019-03-27T00:23:06.843Z,15.17
2019-03-27T00:25:35.823Z,14.45
2019-03-27T00:28:04.726Z,15.50
2019-03-27T00:30:33.624Z,16.13
2019-03-27T00:33:02.546Z,18.10
2019-03-27T00:35:31.452Z,13.83
2019-03-27T00:38:00.335Z,13.87
2019-03-27T00:40:29.228Z,14.43
2019-03-27T00:42:58.443Z,12.07
2019-03-27T00:45:27.360Z,10.72
2019-03-27T00:47:56.238Z,13.50
2019-03-27T00:50:25.518Z,13.50
2019-03-27T00:52:54.439Z,16.10
2019-03-27T00:55:23.319Z,16.42
2019-03-27T00:57:52.204Z,12.43
2019-03-27T01:00:25.651Z,12.30
2019-03-27T01:02:54.527Z,13.47
2019-03-27T01:05:23.723Z,12.55
2019-03-27T01:07:52.767Z,12.03
2019-03-27T01:10:21.824Z,13.53
2019-03-27T01:12:51.687Z,15.45
2019-03-27T01:15:21.763Z,10.50
2019-03-27T01:17:50.727Z,15.68
2019-03-27T01:20:19.724Z,13.70
2019-03-27T01:22:48.623Z,16.32
2019-03-27T01:25:17.539Z,19.77
2019-03-27T01:27:46.460Z,14.70
2019-03-27T01:30:15.551Z,14.38
2019-03-27T01:32:44.437Z,16.03
2019-03-27T01:35:13.751Z,15.25
2019-03-27T01:37:42.643Z,18.00
2019-03-27T01:40:11.719Z,8.17
2019-03-27T01:42:40.635Z,14.57
2019-03-27T01:45:09.619Z,14.70
2019-03-27T01:47:38.670Z,14.47
2019-03-27T01:50:07.657Z,13.68
2019-03-27T01:52:36.674Z,13.47
2019-03-27T01:55:06.758Z,15.80
2019-03-27T01:57:35.646Z,12.27
2019-03-27T02:00:05.510Z,14.60
2019-03-27T02:02:35.575Z,11.13
2019-03-27T02:05:04.699Z,12.80
2019-03-27T02:07:33.591Z,12.85
2019-03-27T02:10:02.488Z,14.17
2019-03-27T02:12:31.411Z,12.63
2019-03-27T02:15:00.798Z,16.40
2019-03-27T02:17:30.650Z,11.63
2019-03-27T02:19:59.538Z,13.50
2019-03-27T02:22:28.496Z,11.73
2019-03-27T02:24:57.337Z,11.67
2019-03-27T02:27:26.956Z,14.93
2019-03-27T02:29:55.819Z,14.00
2019-03-27T02:32:24.725Z,12.93
2019-03-27T02:34:53.621Z,10.23
2019-03-27T02:37:22.507Z,9.23
2019-03-27T02:39:51.392Z,11.60
2019-03-27T02:42:20.299Z,12.80
2019-03-27T02:44:49.183Z,11.08
2019-03-27T02:47:18.076Z,11.27
2019-03-27T02:49:46.975Z,9.77
2019-03-27T02:52:15.873Z,13.50
2019-03-27T02:54:44.756Z,10.00
2019-03-27T02:57:13.668Z,15.63
2019-03-27T02:59:42.552Z,13.47
2019-03-27T03:02:11.451Z,16.67
2019-03-27T03:04:40.360Z,14.30
2019-03-27T03:07:09.392Z,11.50
2019-03-27T03:09:38.458Z,12.93
2019-03-27T03:12:08.346Z,15.48
2019-03-27T03:14:37.237Z,18.53
2019-03-27T03:17:06.139Z,18.07
2019-03-27T03:19:35.657Z,16.02
2019-03-27T03:22:04.560Z,10.60
2019-03-27T03:24:33.458Z,13.55
2019-03-27T03:27:02.391Z,13.00
2019-03-27T03:29:31.322Z,12.93
2019-03-27T03:32:00.236Z,12.13
2019-03-27T03:34:29.134Z,13.13
2019-03-27T03:36:58.035Z,12.90
2019-03-27T03:39:26.967Z,13.37
2019-03-27T03:41:55.857Z,14.93
2019-03-27T03:44:24.864Z,16.87
2019-03-27T03:47:00.024Z,18.45
2019-03-27T03:49:25.429Z,14.37
2019-03-27T03:51:54.340Z,13.83
2019-03-27T03:54:23.863Z,15.43
2019-03-27T03:56:53.847Z,12.53
2019-03-27T03:59:23.844Z,13.60
2019-03-27T04:01:54.123Z,12.68
2019-03-27T04:04:23.403Z,15.27
2019-03-27T04:06:52.305Z,12.00
2019-03-27T04:09:21.491Z,17.35
2019-03-27T04:11:50.412Z,16.70
2019-03-27T04:14:19.288Z,12.20
2019-03-27T04:16:48.306Z,11.60
2019-03-27T04:19:17.155Z,14.33
2019-03-27T04:21:46.054Z,15.13
2019-03-27T04:24:14.960Z,12.45
2019-03-27T04:26:43.856Z,13.98
2019-03-27T04:29:12.752Z,13.10
2019-03-27T04:31:41.641Z,15.67
2019-03-27T04:34:10.585Z,13.43
2019-03-27T04:36:39.422Z,13.97
2019-03-27T04:39:08.319Z,12.13
2019-03-27T04:41:37.209Z,11.13
2019-03-27T04:44:06.095Z,13.97
2019-03-27T04:46:35.072Z,17.33
2019-03-27T04:49:07.721Z,11.17
2019-03-27T04:51:34.480Z,12.78
2019-03-27T04:54:03.395Z,11.90
2019-03-27T04:56:32.281Z,15.10
2019-03-27T04:59:01.173Z,12.87
2019-03-27T05:01:30.080Z,9.03
2019-03-27T05:03:59.246Z,16.13
2019-03-27T05:06:28.143Z,10.23
2019-03-27T05:08:57.046Z,12.50
2019-03-27T05:11:25.928Z,9.40
2019-03-27T05:13:54.816Z,12.97
2019-03-27T05:16:23.731Z,9.68
2019-03-27T05:18:52.615Z,12.53
2019-03-27T05:21:21.779Z,11.90
2019-03-27T05:23:50.677Z,8.97
2019-03-27T05:26:19.566Z,9.75
2019-03-27T05:28:48.454Z,9.87
2019-03-27T05:31:17.335Z,13.10
2019-03-27T05:33:46.239Z,10.50
2019-03-27T05:36:15.214Z,13.25
2019-03-27T05:38:44.187Z,12.33
2019-03-27T05:41:13.067Z,8.17
2019-03-27T05:43:41.942Z,10.23
2019-03-27T05:46:10.840Z,7.87
2019-03-27T05:48:39.763Z,10.87
2019-03-27T05:51:08.747Z,11.20
2019-03-27T05:53:37.667Z,13.47
2019-03-27T05:56:06.556Z,11.83
2019-03-27T05:58:36.191Z,10.63
2019-03-27T06:01:05.096Z,11.17
2019-03-27T06:03:33.995Z,12.63
2019-03-27T06:06:02.980Z,10.40
2019-03-27T06:08:31.866Z,11.03
2019-03-27T06:11:00.751Z,13.03
2019-03-27T06:13:29.658Z,12.03
2019-03-27T06:15:58.583Z,10.47
2019-03-27T06:18:27.493Z,11.87
2019-03-27T06:20:56.371Z,11.67
2019-03-27T06:23:25.287Z,14.73
2019-03-27T06:25:54.176Z,13.33
2019-03-27T06:28:23.058Z,5.50
2019-03-27T06:30:51.964Z,11.07
2019-03-27T06:33:20.850Z,16.00
2019-03-27T06:35:49.733Z,15.28
2019-03-27T06:38:19.695Z,14.87
2019-03-27T06:40:48.948Z,13.80
2019-03-27T06:43:17.936Z,16.20
2019-03-27T06:45:47.814Z,16.57
2019-03-27T06:48:26.237Z,14.53
2019-03-27T06:50:47.199Z,18.27
2019-03-27T06:53:16.111Z,14.87
2019-03-27T06:55:45.098Z,11.53
2019-03-27T06:58:14.031Z,12.77
2019-03-27T07:00:43.487Z,13.45
2019-03-27T07:03:12.375Z,10.90
2019-03-27T07:05:41.286Z,16.17
2019-03-27T07:08:10.159Z,12.73
2019-03-27T07:10:39.051Z,12.17
2019-03-27T07:13:08.031Z,11.93
2019-03-27T07:15:37.015Z,12.82
2019-03-27T07:18:05.890Z,15.80
2019-03-27T07:20:34.776Z,12.63
2019-03-27T07:23:03.679Z,13.67
2019-03-27T07:25:32.559Z,9.23
2019-03-27T07:28:01.443Z,26.47
2019-03-27T07:30:30.429Z,14.85
2019-03-27T07:32:59.333Z,15.07
2019-03-27T07:35:28.211Z,9.63
2019-03-27T07:37:57.736Z,23.90
2019-03-27T07:40:26.619Z,15.20
2019-03-27T07:42:55.526Z,14.63
2019-03-27T07:45:24.427Z,19.62
2019-03-27T07:47:53.308Z,15.38
2019-03-27T07:50:22.215Z,14.45
2019-03-27T07:52:52.471Z,9.30
2019-03-27T07:55:21.359Z,11.80
2019-03-27T07:57:50.283Z,11.70
2019-03-27T08:00:20.676Z,9.80
2019-03-27T08:02:49.579Z,7.93
2019-03-27T08:05:18.908Z,9.48
2019-03-27T08:07:47.801Z,8.50
2019-03-27T08:10:16.683Z,8.63
2019-03-27T08:12:45.590Z,10.47
2019-03-27T08:15:14.607Z,8.85
2019-03-27T08:17:43.489Z,8.35
2019-03-27T08:20:13.891Z,9.03
2019-03-27T08:22:42.983Z,8.13
2019-03-27T08:25:12.182Z,13.10
2019-03-27T08:27:41.091Z,8.55
2019-03-27T08:30:11.031Z,21.00
2019-03-27T08:32:40.004Z,7.27
2019-03-27T08:35:09.587Z,14.05
2019-03-27T08:37:38.547Z,10.37
2019-03-27T08:40:09.415Z,12.63
2019-03-27T08:42:38.318Z,9.40
2019-03-27T08:45:07.311Z,13.03
2019-03-27T08:47:36.335Z,15.50
2019-03-27T08:50:05.582Z,14.90
2019-03-27T08:52:34.475Z,7.40
2019-03-27T08:55:03.399Z,13.10
2019-03-27T08:57:32.951Z,11.97
2019-03-27T09:00:02.849Z,8.83
2019-03-27T09:02:31.895Z,8.97
2019-03-27T09:05:00.799Z,18.73
2019-03-27T09:07:29.752Z,7.80
2019-03-27T09:09:58.830Z,7.65
2019-03-27T09:12:27.735Z,8.70
2019-03-27T09:14:56.620Z,14.47
2019-03-27T09:17:25.553Z,11.00
2019-03-27T09:19:54.434Z,11.40
2019-03-27T09:22:23.319Z,8.58
2019-03-27T09:24:52.222Z,16.00
2019-03-27T09:27:21.102Z,15.00
2019-03-27T09:29:50.011Z,13.28
2019-03-27T09:32:18.893Z,10.23
2019-03-27T09:34:48.822Z,7.67
2019-03-27T09:37:17.991Z,7.97
2019-03-27T09:39:46.880Z,9.97
2019-03-27T09:42:15.843Z,9.10
2019-03-27T09:44:44.783Z,10.93
2019-03-27T09:47:13.674Z,13.22
2019-03-27T09:49:49.390Z,8.80
2019-03-27T09:52:14.035Z,8.83
2019-03-27T09:54:42.935Z,9.33
2019-03-27T09:57:11.807Z,8.10
2019-03-27T09:59:41.670Z,11.80
2019-03-27T10:02:10.576Z,10.13
2019-03-27T10:04:39.447Z,11.25
2019-03-27T10:07:08.347Z,9.77
2019-03-27T10:09:37.240Z,6.27
2019-03-27T10:12:06.207Z,6.37
2019-03-27T10:14:35.082Z,9.33
2019-03-27T10:17:04.035Z,21.75
2019-03-27T10:19:32.966Z,11.33
2019-03-27T10:22:01.821Z,9.47
2019-03-27T10:24:31.250Z,12.70
2019-03-27T10:27:00.163Z,11.03
2019-03-27T10:29:29.046Z,12.73
2019-03-27T10:31:57.957Z,8.47
2019-03-27T10:34:26.843Z,8.00
2019-03-27T10:36:55.734Z,8.33
2019-03-27T10:39:24.631Z,8.78
2019-03-27T10:41:53.531Z,12.85
2019-03-27T10:44:22.411Z,6.77
2019-03-27T10:46:51.326Z,5.47
2019-03-27T10:49:20.195Z,7.55
2019-03-27T10:51:50.452Z,5.78
2019-03-27T10:54:19.339Z,6.97
2019-03-27T10:56:48.249Z,4.92
2019-03-27T10:59:17.119Z,6.90
2019-03-27T11:01:46.011Z,7.10
2019-03-27T11:04:14.895Z,5.23
2019-03-27T11:06:43.803Z,6.13
2019-03-27T11:09:12.688Z,5.87
2019-03-27T11:11:41.567Z,4.83
2019-03-27T11:14:10.459Z,8.10
2019-03-27T11:16:39.349Z,5.50
2019-03-27T11:19:08.259Z,2.47
2019-03-27T11:21:37.141Z,4.37
2019-03-27T11:24:06.580Z,2.90
2019-03-27T11:26:35.481Z,7.87
2019-03-27T11:29:04.362Z,4.50
2019-03-27T11:31:33.254Z,4.80
2019-03-27T11:34:02.241Z,4.67
2019-03-27T11:36:31.135Z,9.93
2019-03-27T11:39:00.058Z,7.12
2019-03-27T11:41:28.941Z,4.07
2019-03-27T11:43:57.825Z,7.37
2019-03-27T11:46:27.155Z,4.12
2019-03-27T11:48:56.060Z,7.77
2019-03-27T11:51:24.951Z,5.03
2019-03-27T11:53:53.856Z,6.57
2019-03-27T11:56:23.843Z,2.25
2019-03-27T11:58:52.710Z,5.35
2019-03-27T12:01:21.623Z,3.35
2019-03-27T12:03:50.727Z,4.08
2019-03-27T12:06:19.603Z,8.93
2019-03-27T12:08:50.868Z,4.33
2019-03-27T12:11:19.523Z,4.47
2019-03-27T12:13:48.442Z,3.80
2019-03-27T12:16:17.323Z,3.23
2019-03-27T12:18:46.199Z,3.87
2019-03-27T12:21:15.350Z,4.67
2019-03-27T12:23:44.443Z,8.00
2019-03-27T12:26:13.611Z,1.63
2019-03-27T12:28:42.724Z,5.08
2019-03-27T12:31:12.159Z,5.45
2019-03-27T12:33:41.346Z,6.95
2019-03-27T12:36:11.959Z,2.92
2019-03-27T12:38:42.166Z,2.40
2019-03-27T12:41:11.419Z,6.27
2019-03-27T12:43:40.723Z,7.28
2019-03-27T12:46:10.013Z,4.30
2019-03-27T12:48:39.136Z,4.90
2019-03-27T12:51:13.002Z,6.07
2019-03-27T12:53:39.151Z,5.70
2019-03-27T12:56:08.267Z,6.87
2019-03-27T12:58:38.371Z,5.17
2019-03-27T13:01:07.607Z,2.37
2019-03-27T13:03:36.982Z,5.33
2019-03-27T13:06:06.153Z,5.63
2019-03-27T13:08:35.328Z,5.45
2019-03-27T13:11:04.519Z,7.87
2019-03-27T13:13:33.912Z,3.42
2019-03-27T13:16:02.986Z,4.77
2019-03-27T13:18:32.005Z,6.03
2019-03-27T13:21:01.111Z,5.90
2019-03-27T13:23:29.983Z,3.57
2019-03-27T13:25:58.876Z,3.65
2019-03-27T13:28:27.773Z,6.93
2019-03-27T13:30:59.783Z,3.75
2019-03-27T13:33:28.703Z,6.87
2019-03-27T13:35:57.603Z,7.27
2019-03-27T13:38:26.479Z,6.00
2019-03-27T13:40:56.443Z,3.87
2019-03-27T13:43:25.321Z,1.97
2019-03-27T13:45:54.791Z,6.75
2019-03-27T13:48:23.667Z,5.73
2019-03-27T13:50:52.555Z,3.50
2019-03-27T13:53:21.465Z,3.90
2019-03-27T13:55:50.425Z,3.25
2019-03-27T13:58:19.308Z,4.35
2019-03-27T14:00:48.211Z,3.40
2019-03-27T14:03:17.156Z,4.80
2019-03-27T14:05:45.994Z,3.75
2019-03-27T14:08:14.887Z,6.50
2019-03-27T14:10:43.791Z,20.97
2019-03-27T14:13:13.254Z,8.68
2019-03-27T14:15:42.158Z,5.60
2019-03-27T14:18:11.036Z,5.13
2019-03-27T14:20:39.914Z,5.67
2019-03-27T14:23:08.811Z,6.10
2019-03-27T14:25:37.767Z,6.65
2019-03-27T14:28:06.647Z,7.45
2019-03-27T14:30:52.915Z,7.08
2019-03-27T14:33:21.792Z,5.70
2019-03-27T14:35:50.800Z,6.50
2019-03-27T14:38:19.724Z,4.33
2019-03-27T14:40:48.815Z,9.70
2019-03-27T14:43:17.705Z,6.33
2019-03-27T14:45:46.609Z,5.00
2019-03-27T14:48:16.568Z,5.87
2019-03-27T14:50:45.375Z,7.50
2019-03-27T14:53:14.728Z,4.90
2019-03-27T14:55:43.731Z,4.57
2019-03-27T14:58:12.610Z,5.53
2019-03-27T15:00:41.498Z,6.13
2019-03-27T15:03:10.403Z,3.67
2019-03-27T15:05:39.295Z,6.53
2019-03-27T15:08:08.268Z,3.83
2019-03-27T15:10:37.223Z,4.97
2019-03-27T15:13:06.199Z,4.70
2019-03-27T15:15:35.099Z,4.37
2019-03-27T15:18:04.107Z,3.63
2019-03-27T15:20:33.245Z,4.05
2019-03-27T15:23:02.138Z,6.20
2019-03-27T15:25:31.039Z,5.27
2019-03-27T15:27:59.908Z,6.80
2019-03-27T15:30:28.795Z,4.95
2019-03-27T15:32:57.699Z,8.00
2019-03-27T15:35:26.588Z,6.77
2019-03-27T15:37:55.466Z,6.80
2019-03-27T15:40:37.592Z,4.50
2019-03-27T15:43:06.531Z,9.33
2019-03-27T15:45:35.419Z,7.47
2019-03-27T15:48:04.351Z,11.18
2019-03-27T15:50:33.508Z,9.20
2019-03-27T15:53:02.395Z,5.42
2019-03-27T15:55:31.419Z,9.65
2019-03-27T15:58:00.288Z,9.33
2019-03-27T16:00:29.303Z,7.20
2019-03-27T16:02:58.239Z,11.97
2019-03-27T16:05:27.135Z,10.03
2019-03-27T16:07:56.047Z,6.97
2019-03-27T16:10:25.150Z,10.07
2019-03-27T16:12:54.166Z,6.15
2019-03-27T16:15:23.108Z,9.35
2019-03-27T16:17:52.059Z,6.67
2019-03-27T16:20:20.979Z,7.47
2019-03-27T16:22:51.282Z,7.50
2019-03-27T16:25:20.251Z,5.65
2019-03-27T16:27:49.471Z,6.95
2019-03-27T16:30:18.560Z,5.33
2019-03-27T16:32:47.515Z,6.63
2019-03-27T16:35:16.443Z,8.67
2019-03-27T16:37:45.342Z,5.93
2019-03-27T16:40:14.398Z,7.80
2019-03-27T16:42:43.316Z,5.20
2019-03-27T16:45:12.307Z,6.87
2019-03-27T16:47:41.219Z,5.10
2019-03-27T16:50:10.594Z,9.85
2019-03-27T16:52:39.490Z,9.83
2019-03-27T16:55:09.319Z,5.90
2019-03-27T16:57:38.251Z,7.13
2019-03-27T17:00:08.131Z,6.53
2019-03-27T17:02:38.195Z,5.83
2019-03-27T17:05:07.239Z,6.92
2019-03-27T17:07:36.120Z,7.27
2019-03-27T17:10:05.298Z,5.97
2019-03-27T17:12:34.199Z,7.03
2019-03-27T17:15:03.099Z,5.63
2019-03-27T17:17:33.025Z,4.55
2019-03-27T17:20:01.918Z,5.22
2019-03-27T17:22:31.076Z,4.37
2019-03-27T17:25:00.019Z,7.17
2019-03-27T17:27:28.943Z,10.63
2019-03-27T17:29:57.819Z,8.07
2019-03-27T17:32:26.778Z,4.95
2019-03-27T17:34:55.679Z,5.72
2019-03-27T17:37:24.575Z,4.50
2019-03-27T17:39:53.449Z,7.60
2019-03-27T17:42:22.335Z,6.13
2019-03-27T17:44:52.220Z,4.30
2019-03-27T17:47:21.174Z,4.70
2019-03-27T17:49:50.731Z,8.28
2019-03-27T17:52:19.619Z,4.85
2019-03-27T17:54:48.499Z,5.90
2019-03-27T17:57:17.403Z,4.93
2019-03-27T17:59:46.283Z,6.20
2019-03-27T18:02:15.175Z,4.37
2019-03-27T18:04:44.073Z,8.30
2019-03-27T18:07:12.975Z,5.72
2019-03-27T18:09:41.859Z,6.63
2019-03-27T18:12:10.755Z,5.83
2019-03-27T18:14:39.659Z,3.77
2019-03-27T18:17:08.548Z,3.00
2019-03-27T18:19:37.427Z,4.90
2019-03-27T18:22:08.067Z,5.25
2019-03-27T18:24:36.839Z,4.73
2019-03-27T18:27:05.731Z,8.77
2019-03-27T18:29:34.627Z,5.70
2019-03-27T18:32:03.519Z,8.18
2019-03-27T18:34:32.403Z,7.30
2019-03-27T18:37:01.326Z,5.60
2019-03-27T18:39:30.219Z,4.05
2019-03-27T18:41:59.111Z,4.78
2019-03-27T18:44:28.055Z,4.77
2019-03-27T18:46:56.935Z,5.07
2019-03-27T18:49:26.291Z,7.28
2019-03-27T18:51:55.168Z,7.05
2019-03-27T18:54:24.048Z,1.60
2019-03-27T18:56:52.951Z,1.77
2019-03-27T18:59:21.847Z,1.97
2019-03-27T19:01:50.719Z,4.10
2019-03-27T19:04:19.659Z,2.40
2019-03-27T19:06:48.543Z,2.33
2019-03-27T19:09:17.427Z,2.43
2019-03-27T19:11:46.359Z,6.72
2019-03-27T19:14:15.263Z,5.80
2019-03-27T19:16:44.151Z,8.83
2019-03-27T19:19:13.073Z,12.03
2019-03-27T19:21:41.960Z,9.23
2019-03-27T19:24:16.168Z,10.70
2019-03-27T19:26:44.476Z,7.83
2019-03-27T19:29:13.351Z,8.38
2019-03-27T19:31:42.267Z,9.47
2019-03-27T19:34:11.147Z,6.73
2019-03-27T19:36:40.124Z,10.60
2019-03-27T19:39:10.123Z,9.73
2019-03-27T19:41:39.401Z,11.70
2019-03-27T19:44:08.279Z,6.28
2019-03-27T19:46:37.172Z,14.73
2019-03-27T19:49:06.066Z,8.00
2019-03-27T19:51:35.007Z,8.77
2019-03-27T19:54:03.904Z,14.33
2019-03-27T19:56:32.783Z,11.73
2019-03-27T19:59:01.775Z,8.58
2019-03-27T20:01:30.707Z,9.03
2019-03-27T20:03:59.598Z,10.32
2019-03-27T20:06:28.481Z,8.98
2019-03-27T20:08:57.387Z,9.53
2019-03-27T20:11:26.320Z,6.80
2019-03-27T20:13:55.608Z,9.35
2019-03-27T20:16:25.543Z,8.90
2019-03-27T20:18:54.487Z,11.22
2019-03-27T20:21:23.447Z,6.50
2019-03-27T20:23:52.407Z,7.90
2019-03-27T20:26:21.527Z,9.40
2019-03-27T20:28:50.407Z,8.53
2019-03-27T20:31:19.298Z,8.88
2019-03-27T20:33:48.315Z,12.33
2019-03-27T20:36:17.238Z,8.15
2019-03-27T20:38:46.260Z,7.37
2019-03-27T20:41:15.109Z,10.30
2019-03-27T20:43:44.077Z,6.92
2019-03-27T20:46:24.400Z,7.00
2019-03-27T20:48:43.484Z,9.00
2019-03-27T20:51:12.383Z,9.03
2019-03-27T20:53:41.263Z,7.80
2019-03-27T20:56:10.179Z,11.20
2019-03-27T20:58:39.150Z,6.67
2019-03-27T21:01:08.039Z,7.35
2019-03-27T21:03:37.045Z,10.00
2019-03-27T21:06:07.007Z,8.40
2019-03-27T21:08:35.906Z,7.92
2019-03-27T21:11:04.823Z,10.05
2019-03-27T21:13:33.707Z,9.37
2019-03-27T21:16:02.596Z,10.33
2019-03-27T21:18:31.515Z,8.28
2019-03-27T21:21:00.407Z,10.53
2019-03-27T21:25:54.890Z,11.20
2019-03-27T21:28:23.758Z,7.77
2019-03-27T21:30:52.723Z,9.73
2019-03-27T21:33:21.627Z,11.57
2019-03-27T21:35:50.549Z,9.33
2019-03-27T21:38:20.459Z,9.15
2019-03-27T21:40:49.343Z,9.20
2019-03-27T21:43:18.263Z,8.80
2019-03-27T21:45:47.163Z,11.00
2019-03-27T21:48:16.039Z,9.90
2019-03-27T21:50:44.963Z,8.13
2019-03-27T21:53:13.847Z,13.53
2019-03-27T21:55:43.303Z,11.63
2019-03-27T21:58:12.231Z,10.87
2019-03-27T22:00:41.120Z,11.60
2019-03-27T22:03:10.283Z,9.28
2019-03-27T22:05:39.192Z,10.10
2019-03-27T22:08:08.071Z,10.53
2019-03-27T22:10:37.032Z,8.60
2019-03-27T22:13:06.021Z,10.68
2019-03-27T22:15:35.054Z,11.30
2019-03-27T22:18:03.943Z,13.40
2019-03-27T22:20:32.825Z,12.27
2019-03-27T22:23:01.823Z,16.33
2019-03-27T22:25:36.225Z,12.63
2019-03-27T22:28:01.229Z,8.03
2019-03-27T22:30:30.110Z,9.63
2019-03-27T22:32:59.006Z,11.20
2019-03-27T22:35:27.898Z,11.00
2019-03-27T22:37:56.790Z,8.13
2019-03-27T22:40:25.678Z,8.70
2019-03-27T22:42:56.948Z,11.83
2019-03-27T22:45:25.259Z,9.58
2019-03-27T22:47:55.117Z,12.77
2019-03-27T22:50:24.005Z,11.50
2019-03-27T22:52:52.894Z,9.70
2019-03-27T22:55:21.895Z,10.63
2019-03-27T22:57:50.759Z,9.63
2019-03-27T23:00:21.752Z,9.07
2019-03-27T23:02:52.524Z,9.90
2019-03-27T23:05:21.719Z,8.67
2019-03-27T23:07:50.622Z,10.55
2019-03-27T23:10:19.504Z,8.90
2019-03-27T23:12:48.395Z,8.17
2019-03-27T23:15:17.274Z,8.33
2019-03-27T23:17:46.162Z,11.20
2019-03-27T23:20:15.053Z,8.90
2019-03-27T23:22:43.930Z,10.73
2019-03-27T23:25:12.815Z,11.40
2019-03-27T23:27:41.788Z,11.23
2019-03-27T23:30:10.847Z,14.87
2019-03-27T23:32:39.848Z,13.22
2019-03-27T23:35:09.410Z,11.70
2019-03-27T23:37:39.366Z,15.80
2019-03-27T23:40:09.629Z,14.10
2019-03-27T23:42:38.512Z,9.87
2019-03-27T23:45:08.034Z,9.17
2019-03-27T23:47:36.990Z,13.22
2019-03-27T23:50:06.289Z,11.40
2019-03-27T23:52:35.190Z,13.85
2019-03-27T23:55:05.126Z,10.58
2019-03-27T23:57:34.011Z,11.97
